Time;durP1;ratioP1;P1;durP2;ratioP2;P2;SDS_P1;SDS_P2;PMS_P1;PMS_P2;Temp;Humidity;BMP_temperature;BMP_pressure;BME280_temperature;BME280_humidity;BME280_pressure;Samples;Min_cycle;Max_cycle;Signal;HPM_P1;HPM_P2
2023/04/04 00:00:49;;;;;;;5.10;1.80;;;2.10;90.50;;;;;;5006408;28;20022;-75
2023/04/04 00:03:18;;;;;;;2.47;0.95;;;2.10;90.60;;;;;;5006090;28;20471;-72
2023/04/04 00:05:44;;;;;;;5.43;1.40;;;2.10;90.50;;;;;;5005230;28;20081;-73
2023/04/04 00:08:10;;;;;;;2.25;1.30;;;2.00;90.40;;;;;;5004693;28;20553;-75
2023/04/04 00:10:35;;;;;;;2.47;1.23;;;2.00;90.50;;;;;;5004879;28;20033;-72
2023/04/04 00:13:10;;;;;;;1.80;1.23;;;2.00;90.40;;;;;;5002422;28;20061;-72
2023/04/04 00:15:39;;;;;;;5.68;1.75;;;2.00;90.80;;;;;;5002847;28;20022;-74
2023/04/04 00:18:05;;;;;;;2.13;1.25;;;1.90;90.30;;;;;;5006788;28;20448;-74
2023/04/04 00:20:36;;;;;;;2.65;1.40;;;1.90;90.50;;;;;;5006281;28;20121;-73
2023/04/04 00:23:02;;;;;;;3.13;1.55;;;1.90;90.60;;;;;;5004859;28;20026;-73
2023/04/04 00:25:39;;;;;;;2.38;1.38;;;1.90;90.70;;;;;;5003790;28;20034;-73
2023/04/04 00:28:11;;;;;;;2.42;1.27;;;1.90;91.70;;;;;;5008262;28;20459;-73
2023/04/04 00:30:46;;;;;;;4.28;1.67;;;1.90;91.20;;;;;;5004300;28;20105;-73
2023/04/04 00:33:12;;;;;;;3.58;1.27;;;1.80;90.80;;;;;;5006400;28;20132;-73
2023/04/04 00:35:44;;;;;;;3.40;1.20;;;1.80;90.70;;;;;;5000468;28;20022;-74
2023/04/04 00:38:12;;;;;;;5.60;1.45;;;1.80;91.30;;;;;;5005208;28;20420;-74
2023/04/04 00:40:44;;;;;;;2.03;1.30;;;1.70;91.00;;;;;;5007214;28;20030;-72
2023/04/04 00:43:13;;;;;;;2.85;1.63;;;1.70;92.00;;;;;;5006217;28;20431;-74
2023/04/04 00:45:45;;;;;;;3.55;1.58;;;1.70;91.00;;;;;;5003690;28;20038;-75
2023/04/04 00:48:14;;;;;;;3.78;1.35;;;1.70;91.80;;;;;;5002963;28;20045;-71
2023/04/04 00:50:40;;;;;;;3.35;1.20;;;1.70;92.00;;;;;;5004106;28;20028;-73
2023/04/04 00:53:08;;;;;;;4.05;1.83;;;1.70;91.30;;;;;;5004593;28;20026;-73
2023/04/04 00:55:37;;;;;;;3.08;1.08;;;1.70;91.30;;;;;;5007858;28;20097;-74
2023/04/04 00:58:03;;;;;;;3.28;1.52;;;1.60;91.30;;;;;;5008610;28;20033;-72
2023/04/04 01:00:30;;;;;;;5.10;1.95;;;1.60;91.80;;;;;;5007571;28;20045;-72
2023/04/04 01:03:04;;;;;;;3.05;1.48;;;1.60;91.60;;;;;;5006344;28;20041;-73
2023/04/04 01:05:33;;;;;;;3.67;1.65;;;1.50;91.50;;;;;;5009979;28;20029;-73
2023/04/04 01:08:00;;;;;;;2.30;1.23;;;1.50;92.10;;;;;;5007664;28;20044;-73
2023/04/04 01:10:25;;;;;;;6.50;2.90;;;1.50;92.30;;;;;;5011374;28;20052;-72
2023/04/04 01:12:51;;;;;;;3.15;1.50;;;1.50;92.00;;;;;;5010183;28;20030;-73
2023/04/04 01:15:16;;;;;;;4.53;1.73;;;1.50;92.10;;;;;;5011005;28;20029;-74
2023/04/04 01:17:43;;;;;;;3.28;1.42;;;1.40;92.10;;;;;;5007411;28;20026;-72
2023/04/04 01:20:21;;;;;;;2.30;1.20;;;1.50;92.90;;;;;;5006141;28;20525;-74
2023/04/04 01:22:51;;;;;;;3.15;1.52;;;1.50;92.60;;;;;;5009198;28;20029;-73
2023/04/04 01:25:20;;;;;;;2.83;1.55;;;1.40;92.70;;;;;;5007517;28;20363;-73
2023/04/04 01:27:46;;;;;;;5.03;1.42;;;1.40;92.50;;;;;;5003429;28;20037;-73
2023/04/04 01:30:13;;;;;;;3.47;1.40;;;1.40;92.60;;;;;;5007690;28;20374;-73
2023/04/04 01:32:53;;;;;;;2.03;1.23;;;1.40;93.50;;;;;;5019633;28;20026;-74
2023/04/04 01:35:25;;;;;;;4.68;1.50;;;1.40;93.20;;;;;;5008459;28;20105;-75
2023/04/04 01:38:17;;;;;;;3.92;1.30;;;1.40;93.00;;;;;;5007323;28;20105;-74
2023/04/04 01:40:48;;;;;;;3.45;1.58;;;1.40;92.80;;;;;;5006292;28;20112;-74
2023/04/04 01:43:14;;;;;;;4.80;1.38;;;1.40;92.80;;;;;;5006005;28;20056;-74
2023/04/04 01:45:40;;;;;;;3.35;1.20;;;1.30;92.90;;;;;;5002909;28;20030;-74
2023/04/04 01:48:09;;;;;;;2.83;1.27;;;1.30;92.80;;;;;;5005589;28;20034;-75
2023/04/04 01:50:38;;;;;;;3.97;1.50;;;1.20;93.00;;;;;;5006854;28;20034;-74
2023/04/04 01:53:10;;;;;;;3.35;1.95;;;1.20;93.70;;;;;;5007043;28;20030;-74
2023/04/04 01:55:36;;;;;;;2.67;0.98;;;1.30;93.50;;;;;;5006741;28;20049;-75
2023/04/04 01:58:14;;;;;;;2.70;1.40;;;1.20;93.30;;;;;;5006339;28;20046;-74
2023/04/04 02:00:40;;;;;;;4.13;1.73;;;1.20;93.30;;;;;;5002222;28;20029;-72
2023/04/04 02:03:11;;;;;;;6.85;1.33;;;1.20;94.50;;;;;;5007047;28;20081;-72
2023/04/04 02:05:37;;;;;;;6.22;2.75;;;1.20;93.60;;;;;;5003610;28;20430;-75
2023/04/04 02:08:03;;;;;;;3.58;1.73;;;1.20;93.90;;;;;;5007029;28;20038;-73
2023/04/04 02:10:31;;;;;;;3.05;1.17;;;1.20;94.00;;;;;;5006212;28;20022;-75
2023/04/04 02:13:03;;;;;;;3.95;1.33;;;1.20;94.00;;;;;;5007272;28;20033;-72
2023/04/04 02:15:28;;;;;;;2.92;1.40;;;1.10;93.40;;;;;;5008093;28;20025;-73
2023/04/04 02:17:54;;;;;;;7.28;1.95;;;1.10;93.40;;;;;;5008444;28;20585;-72
2023/04/04 02:20:26;;;;;;;3.80;1.05;;;1.10;94.30;;;;;;5004121;28;20069;-73
2023/04/04 02:22:55;;;;;;;3.83;1.52;;;1.10;94.00;;;;;;5008860;28;20026;-72
2023/04/04 02:25:22;;;;;;;6.07;1.63;;;1.10;95.70;;;;;;5008697;28;20491;-73
2023/04/04 02:27:48;;;;;;;4.90;1.45;;;1.10;93.90;;;;;;5006381;28;20068;-73
2023/04/04 02:30:14;;;;;;;5.05;1.58;;;1.10;93.90;;;;;;5006577;28;20242;-73
2023/04/04 02:32:40;;;;;;;5.35;1.45;;;1.10;94.80;;;;;;5009407;28;20139;-73
2023/04/04 02:35:06;;;;;;;3.95;1.30;;;1.10;94.40;;;;;;5005200;28;20025;-73
2023/04/04 02:37:35;;;;;;;2.40;1.23;;;1.10;93.90;;;;;;5008384;28;20498;-73
2023/04/04 02:40:00;;;;;;;6.30;1.50;;;1.10;94.50;;;;;;5005198;28;20034;-73
2023/04/04 02:42:32;;;;;;;3.85;1.67;;;1.10;96.40;;;;;;5006115;28;20028;-73
2023/04/04 02:44:57;;;;;;;4.88;1.40;;;1.10;94.60;;;;;;5007450;28;20044;-72
2023/04/04 02:47:23;;;;;;;4.18;1.50;;;1.00;94.10;;;;;;5008940;28;20034;-73
2023/04/04 02:49:51;;;;;;;2.75;1.80;;;1.00;94.10;;;;;;5011829;28;20061;-74
2023/04/04 02:52:19;;;;;;;8.02;1.55;;;1.00;94.00;;;;;;5006664;28;20065;-73
2023/04/04 02:54:45;;;;;;;3.25;1.40;;;0.90;94.80;;;;;;5004412;28;20276;-73
2023/04/04 02:57:11;;;;;;;3.35;1.55;;;0.90;94.40;;;;;;5005231;28;20025;-73
2023/04/04 02:59:37;;;;;;;4.85;1.27;;;0.90;95.20;;;;;;5006990;28;20026;-73
2023/04/04 03:02:02;;;;;;;4.60;1.27;;;1.00;95.30;;;;;;4992857;28;20029;-72
2023/04/04 03:04:28;;;;;;;3.10;1.55;;;1.00;95.70;;;;;;5003744;28;20137;-74
2023/04/04 03:07:00;;;;;;;3.00;1.42;;;1.00;95.40;;;;;;5006647;28;20034;-73
2023/04/04 03:09:31;;;;;;;3.72;1.50;;;1.00;94.80;;;;;;5007094;28;20018;-74
2023/04/04 03:11:57;;;;;;;3.25;1.63;;;0.90;94.70;;;;;;5008384;28;20037;-73
2023/04/04 03:14:34;;;;;;;3.33;1.08;;;0.90;95.00;;;;;;5008381;28;20109;-74
2023/04/04 03:17:03;;;;;;;4.22;1.55;;;0.90;94.70;;;;;;5001329;28;20144;-72
2023/04/04 03:19:29;;;;;;;5.60;1.52;;;0.90;94.70;;;;;;5018434;28;20438;-74
2023/04/04 03:21:58;;;;;;;3.83;1.25;;;0.80;94.70;;;;;;5005816;28;20030;-73
2023/04/04 03:24:27;;;;;;;5.25;1.77;;;0.80;95.10;;;;;;5007589;28;20067;-73
2023/04/04 03:26:53;;;;;;;3.80;1.73;;;0.80;95.20;;;;;;5013358;28;20044;-73
2023/04/04 03:29:19;;;;;;;6.10;1.85;;;0.80;95.10;;;;;;5007206;28;20022;-73
2023/04/04 03:31:45;;;;;;;3.63;1.80;;;0.80;95.70;;;;;;5005535;28;20499;-72
2023/04/04 03:34:11;;;;;;;5.32;1.45;;;0.80;95.90;;;;;;5008363;28;20029;-74
2023/04/04 03:36:39;;;;;;;3.30;1.30;;;0.80;95.70;;;;;;5006679;28;20589;-73
2023/04/04 03:39:05;;;;;;;3.70;1.80;;;0.70;95.30;;;;;;5005636;28;20034;-74
2023/04/04 03:41:34;;;;;;;5.65;1.65;;;0.70;95.20;;;;;;5003625;28;20384;-74
2023/04/04 03:44:02;;;;;;;5.90;1.67;;;0.70;95.40;;;;;;5001902;28;20458;-73
2023/04/04 03:46:31;;;;;;;4.53;1.73;;;0.70;95.50;;;;;;5023013;28;20034;-73
2023/04/04 03:48:56;;;;;;;4.72;1.80;;;0.70;95.60;;;;;;5003956;28;20034;-73
2023/04/04 03:51:26;;;;;;;3.35;1.17;;;0.70;96.20;;;;;;5004996;28;20030;-73
2023/04/04 03:53:52;;;;;;;3.53;1.85;;;0.70;96.10;;;;;;5004497;28;20018;-73
2023/04/04 03:56:18;;;;;;;5.47;1.95;;;0.60;95.90;;;;;;5004529;28;20094;-74
2023/04/04 03:58:44;;;;;;;5.57;1.90;;;0.60;96.80;;;;;;5002308;28;20084;-73
2023/04/04 04:01:13;;;;;;;4.60;1.63;;;0.50;96.80;;;;;;5004360;28;20359;-72
2023/04/04 04:03:44;;;;;;;6.13;1.60;;;0.50;96.70;;;;;;5005223;28;20030;-74
2023/04/04 04:06:10;;;;;;;4.43;2.08;;;0.40;96.70;;;;;;5005056;28;20060;-75
2023/04/04 04:08:39;;;;;;;4.07;1.80;;;0.40;97.60;;;;;;5004821;28;20066;-74
2023/04/04 04:11:05;;;;;;;5.03;1.58;;;0.30;97.40;;;;;;5007108;28;20486;-75
2023/04/04 04:13:40;;;;;;;3.80;1.90;;;0.20;97.20;;;;;;5007079;28;20091;-75
2023/04/04 04:16:06;;;;;;;4.22;1.80;;;0.10;97.40;;;;;;5002381;28;20030;-76
2023/04/04 04:18:32;;;;;;;6.80;1.92;;;0.10;97.30;;;;;;5001694;23;20103;-76
2023/04/04 04:20:58;;;;;;;5.18;2.20;;;0.00;97.00;;;;;;4981949;28;20030;-76
2023/04/04 04:23:24;;;;;;;3.47;1.92;;;0.00;97.30;;;;;;4978356;28;20106;-76
2023/04/04 04:25:50;;;;;;;7.20;1.90;;;0.00;97.70;;;;;;4987344;28;20458;-77
2023/04/04 04:28:16;;;;;;;4.88;2.17;;;-0.10;97.70;;;;;;4992866;28;20038;-76
2023/04/04 04:30:43;;;;;;;3.15;1.70;;;-0.20;97.80;;;;;;4990544;28;20084;-76
2023/04/04 04:33:08;;;;;;;3.80;1.85;;;-0.20;98.10;;;;;;4990556;28;20044;-75
2023/04/04 04:35:38;;;;;;;5.32;1.75;;;-0.20;98.10;;;;;;4993270;28;20057;-76
2023/04/04 04:38:05;;;;;;;4.32;2.00;;;-0.20;98.60;;;;;;4995351;28;20084;-77
2023/04/04 04:40:35;;;;;;;3.58;2.00;;;-0.20;98.30;;;;;;4990388;28;20029;-76
2023/04/04 04:43:01;;;;;;;6.25;2.35;;;-0.30;98.30;;;;;;4988874;28;20029;-76
2023/04/04 04:45:27;;;;;;;4.88;2.15;;;-0.30;98.30;;;;;;4991143;28;20426;-75
2023/04/04 04:47:52;;;;;;;3.55;1.67;;;-0.30;98.50;;;;;;4989233;28;20093;-75
2023/04/04 04:50:18;;;;;;;3.22;2.10;;;-0.40;98.50;;;;;;4991261;28;20027;-76
2023/04/04 04:52:44;;;;;;;3.75;2.00;;;-0.40;98.80;;;;;;4992359;28;20067;-78
2023/04/04 04:55:10;;;;;;;3.72;1.73;;;-0.40;98.50;;;;;;4991696;28;20450;-75
2023/04/04 04:57:37;;;;;;;4.65;2.33;;;-0.50;98.60;;;;;;4991728;28;20026;-75
2023/04/04 05:00:03;;;;;;;5.53;2.03;;;-0.40;98.60;;;;;;4990255;28;20041;-76
2023/04/04 05:02:30;;;;;;;7.20;3.30;;;-0.40;98.80;;;;;;4991879;28;20029;-78
2023/04/04 05:04:55;;;;;;;3.65;1.83;;;-0.40;98.50;;;;;;4988450;28;20061;-75
2023/04/04 05:07:22;;;;;;;3.33;1.85;;;-0.30;98.30;;;;;;4987820;28;20058;-75
2023/04/04 05:09:47;;;;;;;5.70;2.05;;;-0.30;98.40;;;;;;4990579;28;20068;-76
2023/04/04 05:12:13;;;;;;;4.63;1.73;;;-0.30;98.30;;;;;;4990117;28;20498;-76
2023/04/04 05:14:39;;;;;;;6.00;1.80;;;-0.20;98.10;;;;;;4992503;28;20022;-76
2023/04/04 05:17:04;;;;;;;4.53;2.40;;;-0.20;98.20;;;;;;4987849;28;20045;-76
2023/04/04 05:19:30;;;;;;;7.05;2.45;;;-0.20;98.20;;;;;;4987669;28;20018;-76
2023/04/04 05:21:56;;;;;;;5.57;2.47;;;-0.20;98.20;;;;;;4988729;28;20050;-76
2023/04/04 05:24:22;;;;;;;5.25;2.42;;;-0.20;98.40;;;;;;4989668;28;20031;-77
2023/04/04 05:26:48;;;;;;;5.35;1.90;;;-0.20;98.30;;;;;;4991764;28;20026;-77
2023/04/04 05:29:13;;;;;;;5.80;2.08;;;-0.20;98.10;;;;;;4987170;28;20038;-78
2023/04/04 05:31:39;;;;;;;4.78;1.88;;;-0.20;98.40;;;;;;4987598;28;20041;-76
2023/04/04 05:34:07;;;;;;;5.72;2.40;;;-0.20;98.50;;;;;;4989099;28;20630;-76
2023/04/04 05:36:36;;;;;;;6.03;2.20;;;-0.20;98.30;;;;;;4987245;28;20030;-76
2023/04/04 05:39:06;;;;;;;5.18;2.45;;;-0.10;98.50;;;;;;4983724;28;20143;-76
2023/04/04 05:41:32;;;;;;;7.97;2.65;;;-0.10;98.50;;;;;;4986569;28;20104;-77
2023/04/04 05:43:58;;;;;;;6.03;2.85;;;-0.10;98.60;;;;;;4988131;28;20034;-77
2023/04/04 05:46:24;;;;;;;6.22;2.40;;;0.00;98.90;;;;;;4990895;28;20037;-77
2023/04/04 05:48:51;;;;;;;7.60;2.40;;;-0.10;99.00;;;;;;4961904;28;20055;-77
2023/04/04 05:51:17;;;;;;;5.32;2.40;;;0.00;99.00;;;;;;4964634;28;20031;-76
2023/04/04 05:53:46;;;;;;;6.60;3.20;;;0.00;98.60;;;;;;4956538;28;20031;-76
2023/04/04 05:56:12;;;;;;;5.00;2.42;;;0.10;98.60;;;;;;4968623;28;20023;-78
2023/04/04 05:58:38;;;;;;;5.75;3.03;;;0.10;99.00;;;;;;4967786;28;20502;-84
2023/04/04 06:01:07;;;;;;;5.57;2.33;;;0.20;99.70;;;;;;4970810;28;20127;-82
2023/04/04 06:03:33;;;;;;;10.77;3.50;;;0.20;99.50;;;;;;4970956;28;20110;-84
2023/04/04 06:06:01;;;;;;;6.53;2.97;;;0.20;99.10;;;;;;4971391;28;20110;-82
2023/04/04 06:08:27;;;;;;;6.72;2.85;;;0.20;98.80;;;;;;4969238;28;20109;-85
2023/04/04 06:10:54;;;;;;;8.63;2.70;;;0.20;98.80;;;;;;4970349;28;20023;-78
2023/04/04 06:13:20;;;;;;;8.00;3.05;;;0.30;98.80;;;;;;4969939;28;20019;-80
2023/04/04 06:15:46;;;;;;;7.25;3.10;;;0.40;98.80;;;;;;4983715;28;20023;-79
2023/04/04 06:18:12;;;;;;;9.10;2.75;;;0.50;99.00;;;;;;4968813;28;20038;-76
2023/04/04 06:20:38;;;;;;;5.25;2.45;;;0.50;98.20;;;;;;4966239;28;20037;-78
2023/04/04 06:23:03;;;;;;;6.78;2.88;;;0.60;97.70;;;;;;4966847;28;20023;-78
2023/04/04 06:25:30;;;;;;;7.28;2.78;;;0.70;97.80;;;;;;4971754;28;20034;-78
2023/04/04 06:27:56;;;;;;;9.43;2.83;;;0.70;97.70;;;;;;4969419;28;20022;-77
2023/04/04 06:30:22;;;;;;;8.32;2.92;;;0.80;97.70;;;;;;4970758;28;20023;-78
2023/04/04 06:32:48;;;;;;;7.35;2.60;;;0.80;97.80;;;;;;4967273;28;20034;-77
2023/04/04 06:35:14;;;;;;;4.57;2.33;;;0.70;97.50;;;;;;4972291;28;20086;-77
2023/04/04 06:37:39;;;;;;;7.07;2.50;;;0.70;97.20;;;;;;4960759;28;20050;-78
2023/04/04 06:40:06;;;;;;;5.40;2.25;;;0.70;97.30;;;;;;4967450;28;20033;-77
2023/04/04 06:42:32;;;;;;;8.60;3.00;;;0.80;97.30;;;;;;4966359;28;20197;-78
2023/04/04 06:44:57;;;;;;;8.90;3.08;;;0.80;97.00;;;;;;4965823;28;20113;-77
2023/04/04 06:47:23;;;;;;;4.93;2.25;;;0.80;97.00;;;;;;4968747;28;20086;-77
2023/04/04 06:49:48;;;;;;;6.82;2.92;;;0.80;97.10;;;;;;4981875;28;20030;-77
2023/04/04 06:52:14;;;;;;;5.53;2.30;;;0.90;97.20;;;;;;4969965;28;20472;-77
2023/04/04 06:54:40;;;;;;;4.85;2.50;;;1.00;97.30;;;;;;4965768;28;20049;-79
2023/04/04 06:57:06;;;;;;;6.65;2.55;;;1.10;97.10;;;;;;4969251;28;20023;-77
2023/04/04 06:59:31;;;;;;;4.85;2.40;;;1.20;96.90;;;;;;4968453;28;20467;-77
2023/04/04 07:01:57;;;;;;;4.47;2.25;;;1.20;96.60;;;;;;4967201;28;20035;-77
2023/04/04 07:04:23;;;;;;;4.47;2.70;;;1.20;96.50;;;;;;4984746;28;20089;-78
2023/04/04 07:06:48;;;;;;;9.27;3.22;;;1.30;96.90;;;;;;4968909;28;20042;-78
2023/04/04 07:09:14;;;;;;;5.45;2.10;;;1.40;96.90;;;;;;4966874;28;20450;-78
2023/04/04 07:11:40;;;;;;;4.28;2.30;;;1.50;96.70;;;;;;4968317;28;20023;-78
2023/04/04 07:14:05;;;;;;;8.05;2.40;;;1.60;95.40;;;;;;4969599;28;20031;-77
2023/04/04 07:16:31;;;;;;;3.80;1.83;;;1.70;94.70;;;;;;4961520;28;20081;-77
2023/04/04 07:18:56;;;;;;;5.00;1.60;;;1.80;94.10;;;;;;4967486;28;20144;-77
2023/04/04 07:21:23;;;;;;;6.05;1.92;;;1.90;94.00;;;;;;4965457;28;20038;-77
2023/04/04 07:23:50;;;;;;;5.00;2.00;;;2.00;94.20;;;;;;4966715;28;20122;-77
2023/04/04 07:26:15;;;;;;;6.10;1.73;;;2.10;93.80;;;;;;4969263;28;20476;-77
2023/04/04 07:28:41;;;;;;;4.50;1.85;;;2.30;93.40;;;;;;4965423;28;20146;-77
2023/04/04 07:31:07;;;;;;;5.22;1.63;;;2.30;93.30;;;;;;4967628;28;20102;-77
2023/04/04 07:33:32;;;;;;;3.92;2.10;;;2.30;92.80;;;;;;4959887;28;20027;-78
2023/04/04 07:36:03;;;;;;;4.32;2.22;;;2.40;92.90;;;;;;4962940;28;20046;-77
2023/04/04 07:38:30;;;;;;;5.75;1.95;;;2.50;92.70;;;;;;4967702;28;20050;-77
2023/04/04 07:40:55;;;;;;;4.95;1.58;;;2.60;92.90;;;;;;4962002;28;20046;-77
2023/04/04 07:43:21;;;;;;;4.35;2.00;;;2.70;92.80;;;;;;4967189;28;20294;-77
2023/04/04 07:45:47;;;;;;;5.15;2.10;;;2.80;92.10;;;;;;4982749;28;20035;-77
2023/04/04 07:48:12;;;;;;;4.93;2.05;;;2.90;91.20;;;;;;4968879;28;20031;-77
2023/04/04 07:50:38;;;;;;;5.20;2.15;;;2.90;91.20;;;;;;4967136;28;20058;-77
2023/04/04 07:53:04;;;;;;;6.22;1.73;;;2.90;90.90;;;;;;4967954;28;20085;-78
2023/04/04 07:55:30;;;;;;;3.80;1.55;;;3.00;91.10;;;;;;4966468;28;20039;-77
2023/04/04 07:57:57;;;;;;;6.68;2.45;;;3.10;91.00;;;;;;4965178;28;20019;-78
2023/04/04 08:00:25;;;;;;;4.68;1.80;;;3.20;90.80;;;;;;4963866;28;20157;-78
2023/04/04 08:02:55;;;;;;;3.50;1.80;;;3.30;90.40;;;;;;4968679;28;20030;-77
2023/04/04 08:05:21;;;;;;;5.70;2.20;;;3.30;90.60;;;;;;4968157;28;20108;-78
2023/04/04 08:07:46;;;;;;;6.88;2.17;;;3.40;90.30;;;;;;4965719;28;20085;-77
2023/04/04 08:10:12;;;;;;;4.68;1.92;;;3.40;90.20;;;;;;4970304;28;20034;-78
2023/04/04 08:12:38;;;;;;;3.90;1.90;;;3.50;90.70;;;;;;4969125;28;20034;-77
2023/04/04 08:15:04;;;;;;;6.55;2.53;;;3.40;88.80;;;;;;4988846;28;20495;-77
2023/04/04 08:17:30;;;;;;;3.45;2.08;;;3.30;90.10;;;;;;4971997;28;20030;-77
2023/04/04 08:19:56;;;;;;;5.80;2.00;;;3.30;90.00;;;;;;4970581;28;20105;-78
2023/04/04 08:22:22;;;;;;;5.13;2.28;;;3.40;90.10;;;;;;4970774;28;20390;-76
2023/04/04 08:24:48;;;;;;;4.95;2.17;;;3.20;89.20;;;;;;4970676;28;20130;-77
2023/04/04 08:27:16;;;;;;;4.03;2.28;;;3.30;89.40;;;;;;4978788;28;20023;-77
2023/04/04 08:29:44;;;;;;;7.90;2.63;;;3.30;89.20;;;;;;4971300;28;20027;-77
2023/04/04 08:32:09;;;;;;;4.50;1.92;;;3.30;89.70;;;;;;4970281;28;20015;-77
2023/04/04 08:34:36;;;;;;;3.47;2.15;;;3.20;90.00;;;;;;4971449;28;20027;-78
2023/04/04 08:37:02;;;;;;;3.58;2.15;;;3.20;89.70;;;;;;4971324;28;20027;-78
2023/04/04 08:39:27;;;;;;;5.95;2.10;;;3.20;89.50;;;;;;4971047;28;20143;-78
2023/04/04 08:42:01;;;;;;;3.35;1.85;;;3.30;89.40;;;;;;4968970;28;20102;-79
2023/04/04 08:44:28;;;;;;;3.10;1.90;;;3.30;89.20;;;;;;4965295;28;20904;-79
2023/04/04 08:46:55;;;;;;;4.35;2.22;;;3.40;89.70;;;;;;4983227;28;20113;-79
2023/04/04 08:49:22;;;;;;;6.22;2.53;;;3.30;89.00;;;;;;4967155;28;20480;-78
2023/04/04 08:51:49;;;;;;;6.13;2.15;;;3.30;88.80;;;;;;4967083;28;20030;-79
2023/04/04 08:54:16;;;;;;;4.85;2.38;;;3.30;88.20;;;;;;4972055;28;20030;-79
2023/04/04 08:56:42;;;;;;;4.72;2.03;;;3.40;89.30;;;;;;4968809;28;20273;-78
2023/04/04 08:59:10;;;;;;;6.03;2.00;;;3.40;89.10;;;;;;4970306;28;20127;-78
2023/04/04 09:01:36;;;;;;;6.88;2.13;;;3.50;89.50;;;;;;4968338;28;20030;-78
2023/04/04 09:04:03;;;;;;;4.90;2.22;;;3.60;87.70;;;;;;4970455;28;20035;-79
2023/04/04 09:06:29;;;;;;;5.80;2.20;;;3.70;88.80;;;;;;4967596;28;20039;-78
2023/04/04 09:08:58;;;;;;;8.88;2.70;;;3.80;88.50;;;;;;4969954;28;20030;-78
2023/04/04 09:11:26;;;;;;;3.88;2.60;;;3.90;87.80;;;;;;4966690;28;20030;-78
2023/04/04 09:13:55;;;;;;;3.95;1.85;;;3.90;86.80;;;;;;4963853;28;20113;-79
2023/04/04 09:16:21;;;;;;;4.43;2.33;;;4.00;87.10;;;;;;4968623;28;20026;-79
2023/04/04 09:18:46;;;;;;;3.05;1.95;;;4.00;85.50;;;;;;4963704;28;20026;-79
2023/04/04 09:21:12;;;;;;;5.47;1.98;;;4.00;85.10;;;;;;4964377;28;20058;-78
2023/04/04 09:23:38;;;;;;;6.82;2.08;;;4.10;84.80;;;;;;4966792;28;20475;-78
2023/04/04 09:26:05;;;;;;;6.00;2.33;;;4.10;85.00;;;;;;4969981;28;20242;-78
2023/04/04 09:28:32;;;;;;;5.63;2.35;;;4.20;85.50;;;;;;4968175;28;20114;-78
2023/04/04 09:31:01;;;;;;;4.80;2.50;;;4.30;86.30;;;;;;4970052;28;20047;-78
2023/04/04 09:33:27;;;;;;;5.18;2.10;;;4.30;85.10;;;;;;4967897;28;20234;-78
2023/04/04 09:36:06;;;;;;;5.38;2.00;;;4.40;85.10;;;;;;4966685;28;20050;-78
2023/04/04 09:38:36;;;;;;;4.60;2.20;;;4.50;83.80;;;;;;4967852;28;20034;-78
2023/04/04 09:41:04;;;;;;;3.05;2.10;;;4.50;84.20;;;;;;4966680;28;20447;-79
2023/04/04 09:43:31;;;;;;;6.07;2.97;;;4.50;84.60;;;;;;4966258;28;20027;-78
2023/04/04 09:45:59;;;;;;;4.32;2.50;;;4.50;83.90;;;;;;4969440;28;20499;-79
2023/04/04 09:48:35;;;;;;;4.05;2.10;;;4.50;83.70;;;;;;4969252;28;20038;-77
2023/04/04 09:51:05;;;;;;;6.28;2.72;;;4.50;83.30;;;;;;4971381;28;20042;-77
2023/04/04 09:53:35;;;;;;;8.15;2.97;;;4.50;83.00;;;;;;4964919;28;20089;-77
2023/04/04 09:56:01;;;;;;;7.07;3.38;;;4.50;83.30;;;;;;4968653;28;20097;-78
2023/04/04 09:58:35;;;;;;;5.55;2.15;;;4.50;83.60;;;;;;4960757;28;20034;-78
2023/04/04 10:01:07;;;;;;;5.43;3.17;;;4.60;82.90;;;;;;4983539;28;20059;-78
2023/04/04 10:03:35;;;;;;;5.70;2.97;;;4.50;82.90;;;;;;5013534;23;20100;-78
2023/04/04 10:06:08;;;;;;;5.45;2.55;;;4.50;82.50;;;;;;5019240;28;20023;-78
2023/04/04 10:08:36;;;;;;;6.00;2.60;;;4.60;83.00;;;;;;5024829;28;20060;-78
2023/04/04 10:11:04;;;;;;;6.30;2.78;;;4.60;83.00;;;;;;5022154;28;20030;-79
2023/04/04 10:13:31;;;;;;;7.70;2.38;;;4.70;82.30;;;;;;5008599;28;20018;-78
2023/04/04 10:15:58;;;;;;;4.15;2.22;;;4.80;82.90;;;;;;5008395;28;20478;-78
2023/04/04 10:18:26;;;;;;;6.90;2.55;;;4.90;82.50;;;;;;5017230;28;20101;-79
2023/04/04 10:20:55;;;;;;;6.15;2.55;;;4.90;81.80;;;;;;5021180;28;20462;-78
2023/04/04 10:23:26;;;;;;;6.13;2.58;;;4.90;81.00;;;;;;5029517;28;20052;-78
2023/04/04 10:25:58;;;;;;;5.28;2.80;;;5.00;81.50;;;;;;5019343;28;20487;-78
2023/04/04 10:28:25;;;;;;;6.00;2.60;;;5.10;80.70;;;;;;5013655;28;20060;-79
2023/04/04 10:31:20;;;;;;;4.85;2.40;;;5.00;80.90;;;;;;5017955;28;20466;-76
2023/04/04 10:34:24;;;;;;;5.45;2.60;;;5.10;80.70;;;;;;5009013;28;20026;-78
2023/04/04 10:36:53;;;;;;;4.63;2.55;;;5.10;80.20;;;;;;5026698;28;20034;-77
2023/04/04 10:40:04;;;;;;;4.18;2.33;;;5.00;80.30;;;;;;5001220;28;20113;-76
2023/04/04 10:42:37;;;;;;;5.78;2.80;;;5.10;80.30;;;;;;5006189;28;20069;-77
2023/04/04 10:45:06;;;;;;;6.72;2.67;;;5.10;81.20;;;;;;5007600;28;20056;-78
2023/04/04 10:47:32;;;;;;;4.82;2.55;;;5.10;80.30;;;;;;5007383;28;20041;-78
2023/04/04 10:49:58;;;;;;;9.35;2.75;;;5.10;80.80;;;;;;5006454;28;20040;-78
2023/04/04 10:52:27;;;;;;;8.95;4.00;;;5.20;80.60;;;;;;5007017;28;20026;-78
2023/04/04 10:54:56;;;;;;;6.45;3.08;;;5.30;79.80;;;;;;5018740;28;20030;-78
2023/04/04 10:57:23;;;;;;;4.30;2.55;;;5.20;79.80;;;;;;5003613;28;20066;-80
2023/04/04 10:59:57;;;;;;;7.43;2.60;;;5.20;79.50;;;;;;5006493;28;20033;-80
2023/04/04 11:02:49;;;;;;;5.82;2.50;;;5.20;79.90;;;;;;5000992;28;20565;-78
2023/04/04 11:05:19;;;;;;;4.00;2.25;;;5.30;80.10;;;;;;5004499;28;20029;-78
2023/04/04 11:07:46;;;;;;;5.32;2.70;;;5.30;78.20;;;;;;5000727;28;20033;-78
2023/04/04 11:10:29;;;;;;;6.65;2.45;;;5.30;78.40;;;;;;5018620;28;20398;-78
2023/04/04 11:12:57;;;;;;;4.13;2.08;;;5.20;79.30;;;;;;5001667;28;20108;-77
2023/04/04 11:15:25;;;;;;;6.90;2.85;;;5.20;79.80;;;;;;5007179;28;20034;-77
2023/04/04 11:17:58;;;;;;;7.47;2.58;;;5.30;80.00;;;;;;4998892;28;20447;-78
2023/04/04 11:20:32;;;;;;;4.35;2.83;;;5.40;79.00;;;;;;5001825;28;20033;-77
2023/04/04 11:23:08;;;;;;;;;;;5.40;79.50;;;;;;5019564;28;20061;-78
2023/04/04 11:25:36;;;;;;;4.80;2.50;;;5.50;78.50;;;;;;5005419;28;20294;-78
2023/04/04 11:28:06;;;;;;;5.57;2.67;;;5.50;78.80;;;;;;4994836;28;20108;-77
2023/04/04 11:30:46;;;;;;;7.45;2.53;;;5.60;78.40;;;;;;5000982;28;20030;-78
2023/04/04 11:33:14;;;;;;;10.93;2.97;;;5.60;78.90;;;;;;5001084;28;20208;-77
2023/04/04 11:35:45;;;;;;;6.75;3.33;;;5.60;78.10;;;;;;5008025;28;20017;-78
2023/04/04 11:38:17;;;;;;;4.07;2.38;;;5.70;78.80;;;;;;5001411;28;20079;-77
2023/04/04 11:40:53;;;;;;;6.30;3.25;;;5.70;78.10;;;;;;5007556;28;20037;-77
2023/04/04 11:43:19;;;;;;;8.55;2.95;;;5.70;78.60;;;;;;5017151;28;20053;-79
2023/04/04 11:45:46;;;;;;;4.68;2.75;;;5.70;77.70;;;;;;5007819;28;20026;-79
2023/04/04 11:48:14;;;;;;;5.45;2.63;;;5.70;78.40;;;;;;5006890;28;20038;-79
2023/04/04 11:50:41;;;;;;;8.18;3.33;;;5.70;78.60;;;;;;5002260;28;20025;-78
2023/04/04 11:53:11;;;;;;;4.68;2.78;;;5.80;77.40;;;;;;5000949;28;20110;-79
2023/04/04 11:55:46;;;;;;;4.00;2.50;;;5.70;77.00;;;;;;5002729;28;20022;-79
2023/04/04 11:58:15;;;;;;;8.25;3.17;;;5.80;76.60;;;;;;5000477;28;20040;-78
2023/04/04 12:00:42;;;;;;;11.48;3.15;;;5.80;75.40;;;;;;5006806;28;20022;-77
2023/04/04 12:03:11;;;;;;;4.35;2.63;;;5.80;75.30;;;;;;5003405;28;20129;-78
2023/04/04 12:05:38;;;;;;;5.72;2.70;;;5.80;75.00;;;;;;5001944;28;20117;-76
2023/04/04 12:08:06;;;;;;;5.65;3.13;;;5.80;75.30;;;;;;5004771;28;20037;-77
2023/04/04 12:10:36;;;;;;;6.85;2.75;;;5.80;75.80;;;;;;4986122;28;20029;-77
2023/04/04 12:13:06;;;;;;;6.53;2.83;;;5.80;76.20;;;;;;5006452;28;20038;-77
2023/04/04 12:15:34;;;;;;;5.07;2.45;;;5.70;76.80;;;;;;5003880;28;20030;-77
2023/04/04 12:17:59;;;;;;;8.30;2.92;;;5.70;77.30;;;;;;5008827;28;20030;-77
2023/04/04 12:20:26;;;;;;;6.10;2.47;;;5.80;76.80;;;;;;5007086;28;20034;-77
2023/04/04 12:22:52;;;;;;;6.53;2.92;;;5.90;76.70;;;;;;5003544;28;20030;-77
2023/04/04 12:25:20;;;;;;;7.10;3.70;;;5.90;77.10;;;;;;5005094;28;20549;-77
2023/04/04 12:27:48;;;;;;;9.18;3.10;;;6.00;75.10;;;;;;5006556;28;20479;-78
2023/04/04 12:30:16;;;;;;;8.82;3.03;;;6.00;75.70;;;;;;5006790;28;20459;-77
2023/04/04 12:32:44;;;;;;;5.82;2.97;;;6.00;74.70;;;;;;5008550;28;20029;-77
2023/04/04 12:35:12;;;;;;;4.05;2.85;;;6.00;75.10;;;;;;5007250;28;20024;-77
2023/04/04 12:37:38;;;;;;;7.13;3.42;;;6.00;75.60;;;;;;5006277;28;20030;-77
2023/04/04 12:40:04;;;;;;;7.97;3.28;;;6.00;74.70;;;;;;5007295;28;20030;-77
2023/04/04 12:42:30;;;;;;;4.85;2.90;;;5.90;74.70;;;;;;5006639;28;20533;-77
2023/04/04 12:44:56;;;;;;;3.40;2.40;;;5.90;74.80;;;;;;5007711;28;20048;-77
2023/04/04 12:47:24;;;;;;;4.43;2.92;;;5.90;75.20;;;;;;5005096;28;20482;-77
2023/04/04 12:49:55;;;;;;;13.90;3.42;;;6.00;75.70;;;;;;5010481;28;20022;-77
2023/04/04 12:52:21;;;;;;;4.93;3.22;;;6.10;75.10;;;;;;5010211;28;20018;-77
2023/04/04 12:54:47;;;;;;;7.65;3.60;;;6.10;75.60;;;;;;5006850;28;20018;-77
2023/04/04 12:57:18;;;;;;;7.10;3.55;;;6.20;75.60;;;;;;5011255;28;20036;-77
2023/04/04 12:59:47;;;;;;;6.38;2.92;;;6.20;75.80;;;;;;5025921;28;20044;-77